Latest Weather Observations for Lombadina

IDW60801

Issued at 6:02 pm WST Tuesday 1 September 2015 (issued every 30 minutes, with the page automatically refreshed every 10 minutes)

About weather observations | Map of weather stations | Latest weather observations for WA | Other Formats
Station Details ID: 503016 Name: LOMBADINA AIRSTRIP Lat: -16.52 Lon: 122.92 Height: 42.0 m
Data from the previous 72 hours. | See also: Recent months for locations in Western Australia
Date/Time
WST
Temp
°C
App
Temp
°C
Dew
Point
Rel
Hum
%
Delta-T
°C
Wind Press
QNH
hPa
Press
MSL
hPa
Rain
since 9 am
mm
Dir
 
Spd
km/h
Gust
km/h
Spd
kts
Gust
kts
01/06:00pm 23.9 24.9 17.7 68 3.9 WSW 9 15 5 8 1013.6 1013.4 0.0
01/05:30pm 24.5 24.9 17.3 64 4.5 WSW 11 20 6 11 1013.5 1013.3 0.0
01/05:00pm 25.6 25.5 16.9 58 5.4 W 13 28 7 15 1013.1 1012.9 0.0
01/04:30pm 26.0 25.7 16.4 55 5.9 W 13 26 7 14 1013.0 1012.8 0.0
01/04:00pm 26.5 25.5 16.6 54 6.1 WSW 17 28 9 15 1013.0 1012.8 0.0
01/03:30pm 26.6 25.5 16.4 53 6.3 WSW 17 32 9 17 1012.9 1012.7 0.0
01/03:00pm 26.8 26.0 17.2 55 6.0 WSW 17 32 9 17 1012.9 1012.7 0.0
01/02:30pm 26.7 25.9 17.2 56 5.9 W 17 33 9 18 1012.9 1012.7 0.0
01/02:00pm 27.5 26.4 16.4 50 6.9 W 17 28 9 15 1013.2 1013.0 0.0
01/01:30pm 27.9 26.2 14.6 44 8.0 W 17 26 9 14 1013.4 1013.2 0.0
01/01:00pm 28.1 26.4 14.8 44 8.1 W 17 32 9 17 1013.6 1013.4 0.0
01/12:30pm 27.9 26.2 14.6 44 8.0 W 17 24 9 13 1013.8 1013.6 0.0
01/12:00pm 27.7 26.7 15.5 47 7.5 W 15 30 8 16 1014.2 1014.0 0.0
01/11:30am 28.1 27.9 16.7 50 7.1 W 13 22 7 12 1014.6 1014.4 0.0
01/11:00am 27.5 26.7 16.0 49 7.1 W 15 28 8 15 1015.1 1014.9 0.0
01/10:30am 27.0 26.8 17.7 56 5.9 WNW 15 24 8 13 1015.4 1015.2 0.0
01/10:00am 27.4 27.8 18.2 57 5.9 WNW 13 24 7 13 1015.7 1015.5 0.0
01/09:30am 27.9 28.5 16.8 50 6.9 WSW 9 17 5 9 1016.0 1015.8 0.0
01/09:00am 26.3 27.5 18.3 61 5.1 WSW 9 22 5 12 1015.9 1015.7 0.0
01/08:30am 25.4 27.1 19.3 69 3.9 SW 9 20 5 11 1015.8 1015.6 0.0
01/08:00am 24.3 26.5 19.6 75 3.0 SSW 7 15 4 8 1015.7 1015.5 0.0
01/07:30am 22.4 25.1 20.3 88 1.4 SSW 6 11 3 6 1015.7 1015.5 0.0
01/07:00am 20.7 23.9 20.5 99 0.1 SSW 4 7 2 4 1015.3 1015.1 0.0
01/06:30am 18.8 21.6 18.8 100 0.0 S 2 4 1 2 1014.9 1014.7 0.0
01/06:00am 18.0 20.1 18.0 100 0.0 SW 4 6 2 3 1014.6 1014.4 0.0
01/05:30am 17.4 19.2 17.4 100 0.0 SW 4 7 2 4 1014.2 1014.0 0.0
01/05:00am 16.8 18.3 16.7 99 0.1 WSW 4 7 2 4 1013.7 1013.5 0.0
01/04:30am 17.1 19.4 16.8 98 0.2 CALM 0 2 0 1 1013.4 1013.2 0.0
01/04:00am 17.4 19.9 17.3 99 0.1 CALM 0 2 0 1 1013.5 1013.3 0.0
01/03:30am 17.6 19.8 17.5 99 0.1 ESE 2 2 1 1 1013.6 1013.4 0.0
01/03:00am 17.8 20.1 17.7 99 0.1 ESE 2 4 1 2 1013.7 1013.5 0.0
01/02:30am 17.6 19.4 17.4 99 0.1 SE 4 6 2 3 1013.8 1013.6 0.0
01/02:00am 18.0 20.2 17.5 97 0.3 SE 2 4 1 2 1013.8 1013.6 0.0
01/01:30am 18.2 20.5 17.7 97 0.3 SE 2 4 1 2 1013.9 1013.7 0.0
01/01:00am 18.7 20.8 17.3 91 0.9 SW 2 6 1 3 1014.1 1013.9 0.0
01/12:30am 19.4 21.5 18.2 93 0.7 WSW 4 7 2 4 1014.4 1014.2 0.0
01/12:00am 19.7 21.7 17.8 89 1.2 WSW 4 4 2 2 1014.8 1014.6 0.0
 
Date/Time
WST
Temp
°C
App
Temp
°C
Dew
Point
Rel
Hum
%
Delta-T
°C
Wind Press
QNH
hPa
Press
MSL
hPa
Rain
since 9 am
mm
Dir
 
Spd
km/h
Gust
km/h
Spd
kts
Gust
kts
31/11:30pm 20.7 22.5 18.3 86 1.5 WSW 6 7 3 4 1015.0 1014.8 0.0
31/11:00pm 21.5 23.3 18.4 82 1.9 WSW 6 9 3 5 1015.3 1015.1 0.0
31/10:30pm 21.9 23.6 18.5 81 2.1 WSW 7 13 4 7 1015.5 1015.3 0.0
31/10:00pm 22.0 23.6 18.3 79 2.3 WSW 7 13 4 7 1015.5 1015.3 0.0
31/09:30pm 22.2 23.5 17.6 75 2.9 WSW 7 13 4 7 1015.6 1015.4 0.0
31/09:00pm 22.3 23.4 17.0 72 3.3 WSW 7 13 4 7 1015.7 1015.5 0.0
31/08:30pm 22.4 23.2 16.4 69 3.6 WSW 7 13 4 7 1015.6 1015.4 0.0
31/08:00pm 22.7 23.4 16.0 66 4.0 WSW 7 13 4 7 1015.4 1015.2 0.0
31/07:30pm 22.9 23.4 15.5 63 4.4 WSW 7 17 4 9 1015.1 1014.9 0.0
31/07:00pm 23.5 23.7 15.7 61 4.7 WSW 9 19 5 10 1014.9 1014.7 0.0
31/06:30pm 23.6 24.0 16.2 63 4.5 WSW 9 15 5 8 1014.6 1014.4 0.0
31/06:00pm 24.1 24.1 16.3 61 4.8 WSW 11 20 6 11 1014.5 1014.3 0.0
31/05:30pm 24.6 24.4 16.7 61 4.9 W 13 26 7 14 1014.2 1014.0 0.0
31/05:00pm 25.3 24.3 16.7 59 5.3 W 17 33 9 18 1014.1 1013.9 0.0
31/04:30pm 25.9 25.4 17.0 58 5.5 WSW 15 30 8 16 1014.0 1013.8 0.0
31/04:00pm 26.3 25.0 16.8 56 5.9 WSW 19 28 10 15 1013.8 1013.6 0.0
31/03:30pm 26.2 25.4 17.2 57 5.6 WSW 17 30 9 16 1013.6 1013.4 0.0
31/03:00pm 26.8 26.0 17.1 55 6.1 W 17 30 9 16 1013.8 1013.6 0.0
31/02:30pm 27.0 25.7 16.8 53 6.4 W 19 32 10 17 1014.0 1013.8 0.0
31/02:00pm 27.1 26.6 17.8 56 5.9 WSW 17 28 9 15 1014.3 1014.1 0.0
31/01:30pm 27.8 28.2 19.0 58 5.7 W 15 26 8 14 1014.5 1014.3 0.0
31/01:00pm 28.3 27.7 17.5 52 6.8 W 17 30 9 16 1014.8 1014.6 0.0
31/12:30pm 27.2 27.1 18.7 59 5.4 W 17 30 9 16 1015.1 1014.9 0.0
31/12:00pm 27.4 26.3 16.4 51 6.8 W 17 28 9 15 1015.4 1015.2 0.0
31/11:30am 27.7 26.7 15.6 47 7.4 WSW 15 28 8 15 1015.6 1015.4 0.0
31/11:00am 28.0 27.6 16.3 49 7.2 W 13 24 7 13 1016.2 1016.0 0.0
31/10:30am 27.6 27.6 17.3 53 6.5 W 13 22 7 12 1016.5 1016.3 0.0
31/10:00am 27.5 27.7 17.7 55 6.2 W 13 24 7 13 1016.9 1016.7 0.0
31/09:30am 27.3 28.1 18.1 57 5.8 W 11 22 6 12 1017.0 1016.8 0.0
31/09:00am 27.1 28.5 18.7 60 5.4 W 9 17 5 9 1016.8 1016.6 0.0
31/08:30am 25.6 26.9 19.4 68 4.0 WSW 11 17 6 9 1016.5 1016.3 0.0
31/08:00am 25.1 27.4 19.9 73 3.4 WSW 7 11 4 6 1016.2 1016.0 0.0
31/07:30am 23.7 26.9 20.4 82 2.1 SW 4 7 2 4 1016.1 1015.9 0.0
31/07:00am 21.9 25.8 21.2 96 0.5 S 2 6 1 3 1015.8 1015.6 0.0
31/06:30am 19.5 22.5 19.3 99 0.1 S 2 6 1 3 1015.4 1015.2 0.0
31/06:00am 18.8 21.5 18.7 99 0.1 S 2 4 1 2 1015.2 1015.0 0.0
31/05:30am 18.6 20.7 18.2 97 0.2 S 4 6 2 3 1015.0 1014.8 0.0
31/05:00am 18.6 21.2 18.3 98 0.2 S 2 6 1 3 1014.8 1014.6 0.0
31/04:30am 19.1 21.4 18.5 96 0.4 SW 4 6 2 3 1014.7 1014.5 0.0
31/04:00am 19.8 22.4 19.2 96 0.4 WSW 4 7 2 4 1014.7 1014.5 0.0
31/03:30am 20.4 23.1 19.4 94 0.6 WSW 4 7 2 4 1014.8 1014.6 0.0
31/03:00am 20.6 22.9 19.5 93 0.7 SW 6 9 3 5 1015.0 1014.8 0.0
31/02:30am 20.9 23.3 19.6 92 0.8 WSW 6 9 3 5 1015.2 1015.0 0.0
31/02:00am 21.2 23.5 19.8 92 0.9 WSW 7 13 4 7 1015.5 1015.3 0.0
31/01:30am 20.7 22.9 19.1 90 1.0 SW 6 7 3 4 1015.8 1015.6 0.0
31/01:00am 21.2 23.4 19.3 89 1.2 SW 6 11 3 6 1016.0 1015.8 0.0
31/12:30am 21.3 23.5 19.2 88 1.3 SW 6 11 3 6 1016.3 1016.1 0.0
31/12:00am 21.6 23.5 19.0 85 1.6 SW 7 13 4 7 1016.6 1016.4 0.0
 
Date/Time
WST
Temp
°C
App
Temp
°C
Dew
Point
Rel
Hum
%
Delta-T
°C
Wind Press
QNH
hPa
Press
MSL
hPa
Rain
since 9 am
mm
Dir
 
Spd
km/h
Gust
km/h
Spd
kts
Gust
kts
30/11:30pm 21.9 23.8 19.0 83 1.8 SW 7 13 4 7 1016.7 1016.5 0.0
30/11:00pm 21.8 23.3 19.0 84 1.8 SW 9 15 5 8 1016.8 1016.6 0.0
30/10:30pm 22.0 24.0 19.1 83 1.8 SW 7 13 4 7 1017.0 1016.8 0.0
30/10:00pm 22.3 24.5 19.5 84 1.8 WSW 7 13 4 7 1017.0 1016.8 0.0
30/09:30pm 22.7 24.9 19.7 83 1.9 WSW 7 15 4 8 1017.0 1016.8 0.0
30/09:00pm 22.9 25.2 19.8 83 2.0 SW 7 17 4 9 1016.9 1016.7 0.0
30/08:30pm 23.1 25.4 19.8 82 2.1 WSW 7 15 4 8 1016.8 1016.6 0.0
30/08:00pm 23.3 25.3 19.9 81 2.2 WSW 9 17 5 9 1016.6 1016.4 0.0
30/07:30pm 23.6 25.6 20.0 80 2.3 WSW 9 19 5 10 1016.3 1016.1 0.0
30/07:00pm 23.7 25.5 20.4 82 2.1 WSW 11 24 6 13 1016.0 1015.8 0.0
30/06:30pm 23.9 25.7 20.4 81 2.3 WSW 11 22 6 12 1015.8 1015.6 0.0
30/06:00pm 24.2 25.8 20.7 81 2.3 WSW 13 24 7 13 1015.4 1015.2 0.0
30/05:30pm 24.6 26.5 20.5 78 2.7 WSW 11 24 6 13 1015.2 1015.0 0.0
30/05:00pm 25.6 27.0 20.3 72 3.5 WSW 13 22 7 12 1015.0 1014.8 0.0
30/04:30pm 26.2 27.2 20.3 70 3.9 W 15 24 8 13 1014.7 1014.5 0.0
30/04:00pm 26.7 27.2 20.0 66 4.4 W 17 28 9 15 1014.5 1014.3 0.0
30/03:30pm 26.8 27.3 20.0 66 4.4 W 17 33 9 18 1014.2 1014.0 0.0
30/03:00pm 27.4 28.1 19.7 63 5.0 WSW 15 30 8 16 1014.5 1014.3 0.0
30/02:30pm 27.9 28.2 19.5 60 5.5 W 17 28 9 15 1014.5 1014.3 0.0
30/02:00pm 28.5 29.4 19.3 57 6.0 W 13 22 7 12 1014.6 1014.4 0.0
30/01:30pm 27.9 28.3 19.9 61 5.2 W 17 30 9 16 1014.8 1014.6 0.0
30/01:00pm 27.3 27.8 20.1 64 4.7 W 17 26 9 14 1015.5 1015.3 0.0
30/12:30pm 29.2 30.3 19.7 56 6.2 W 13 20 7 11 1015.7 1015.5 0.0
30/12:00pm 28.9 31.2 19.4 56 6.2 SSW 6 19 3 10 1016.1 1015.9 0.0
30/11:30am 27.9 30.9 20.0 62 5.2 WSW 4 11 2 6 1016.6 1016.4 0.0
30/11:00am 27.5 29.5 20.0 63 4.9 ENE 9 17 5 9 1017.2 1017.0 0.0
30/10:30am 27.6 30.1 19.9 63 5.0 ESE 6 11 3 6 1017.7 1017.5 0.0
30/10:00am 27.0 28.8 18.4 59 5.5 W 6 13 3 7 1018.0 1017.8 0.0
30/09:30am 26.6 28.9 19.9 66 4.4 SW 7 15 4 8 1018.1 1017.9 0.0
30/09:00am 25.9 27.7 19.6 68 4.1 SW 9 17 5 9 1018.1 1017.9 0.0
30/08:30am 24.9 26.8 19.8 73 3.3 SSW 9 20 5 11 1017.9 1017.7 0.0
30/08:00am 24.1 26.7 20.1 78 2.6 S 6 11 3 6 1017.7 1017.5 0.0
30/07:30am 22.9 25.6 20.2 85 1.7 SE 6 13 3 7 1017.4 1017.2 0.0
30/07:00am 21.8 24.7 20.7 93 0.7 SSE 6 11 3 6 1017.0 1016.8 0.0
30/06:30am 20.5 23.5 20.1 98 0.3 SSE 4 7 2 4 1016.5 1016.3 0.0
30/06:00am 20.1 23.0 19.8 98 0.2 SSE 4 7 2 4 1016.0 1015.8 0.0
30/05:30am 20.0 22.8 19.6 98 0.3 S 4 6 2 3 1015.5 1015.3 0.0
30/05:00am 20.1 23.2 19.5 96 0.4 SSE 2 4 1 2 1015.2 1015.0 0.0
30/04:30am 20.6 24.0 20.2 98 0.3 WSW 2 7 1 4 1014.8 1014.6 0.0
30/04:00am 20.7 23.4 20.3 98 0.3 SW 6 9 3 5 1014.6 1014.4 0.0
30/03:30am 20.7 23.4 20.2 97 0.3 SW 6 9 3 5 1014.7 1014.5 0.0
30/03:00am 20.7 23.8 20.2 97 0.3 SW 4 7 2 4 1014.7 1014.5 0.0
30/02:30am 20.9 23.7 20.4 97 0.3 SW 6 9 3 5 1014.7 1014.5 0.0
30/02:00am 21.0 23.6 20.4 96 0.4 SW 7 11 4 6 1014.8 1014.6 0.0
30/01:30am 21.0 23.8 20.4 96 0.4 SW 6 11 3 6 1015.1 1014.9 0.0
30/01:00am 21.3 24.0 20.6 96 0.5 WSW 7 13 4 7 1015.4 1015.2 0.0
30/12:30am 21.4 24.2 20.5 95 0.6 SW 6 11 3 6 1015.5 1015.3 0.0
30/12:00am 21.5 24.3 20.4 93 0.7 SW 6 13 3 7 1015.6 1015.4 0.0
 
Date/Time
WST
Temp
°C
App
Temp
°C
Dew
Point
Rel
Hum
%
Delta-T
°C
Wind Press
QNH
hPa
Press
MSL
hPa
Rain
since 9 am
mm
Dir
 
Spd
km/h
Gust
km/h
Spd
kts
Gust
kts
29/11:30pm 21.8 24.5 20.7 93 0.7 WSW 7 13 4 7 1015.7 1015.5 0.0
29/11:00pm 21.9 24.6 20.7 93 0.8 WSW 7 11 4 6 1015.7 1015.5 0.0
29/10:30pm 22.1 25.0 21.0 93 0.7 SW 7 11 4 6 1015.6 1015.4 0.0
29/10:00pm 22.2 25.0 20.8 92 0.9 SW 7 13 4 7 1016.0 1015.8 0.0
29/09:30pm 22.5 25.4 20.7 89 1.2 WSW 6 9 3 5 1016.0 1015.8 0.0
29/09:00pm 22.8 25.5 20.7 88 1.4 WSW 7 13 4 7 1016.1 1015.9 0.0
29/08:30pm 23.0 25.7 20.7 87 1.5 WSW 7 13 4 7 1015.9 1015.7 0.0
29/08:00pm 23.4 25.7 20.7 85 1.8 WSW 9 15 5 8 1015.8 1015.6 0.0
29/07:30pm 23.6 26.1 21.0 85 1.7 WSW 9 15 5 8 1015.6 1015.4 0.0
29/07:00pm 23.8 26.1 20.7 83 2.0 WSW 9 19 5 10 1015.3 1015.1 0.0
29/06:30pm 24.1 26.9 20.8 82 2.2 WSW 7 13 4 7 1015.0 1014.8 0.0

Other Formats:

Comma delimited format used in spreadsheet applications
http://www.bom.gov.au/fwo/IDW60801/IDW60801.99206.axf

JavaScript Object Notation format (JSON) in row-major order
http://www.bom.gov.au/fwo/IDW60801/IDW60801.99206.json